Zonhoven, Belgium
Current Conditions -  °F | °C
As of 4:25 PM on Thursday 23 Oct 2014 (Local Time) from EBBL Reporting Station
Broken Clouds Broken Clouds  
Wind Chill: 55°   Ceiling: 4100
Heat Index: 55°   Visibility: 6mi
Dew Point: 50°   Wind: 6mph
Humidity: 82%   Direction: 210°SSW
Pressure: 30.21"   Gusts: NA
Location:  50.99°N, 5.37°E
Report Text: EBBL 231425Z 21005KT 9999 FEW020 SCT033 BKN041 13/10 Q1023 BLU BLU TEMPO WHT
Loading
Personal Weather Stations






























Interactive Weather Map
Tropical Storm Tracking
New forecast layout! Learn more

10-Day Weather Forecast

Advertisements
Track Severe Weather on mobile